Time;durP1;ratioP1;P1;durP2;ratioP2;P2;SDS_P1;SDS_P2;PMS_P1;PMS_P2;Temp;Humidity;BMP_temperature;BMP_pressure;BME280_temperature;BME280_humidity;BME280_pressure;Samples;Min_cycle;Max_cycle;Signal;HPM_P1;HPM_P2
2023/12/29 00:01:36;;;;;;;13.63;3.28;;;;;;;11.61;86.92;101066.38;5045126;28;20041;-67
2023/12/29 00:04:03;;;;;;;15.88;3.20;;;;;;;11.58;87.33;101055.94;5050216;28;20057;-68
2023/12/29 00:06:31;;;;;;;13.18;3.13;;;;;;;11.63;88.10;101064.13;5051970;28;20060;-68
2023/12/29 00:09:00;;;;;;;17.98;3.10;;;;;;;11.39;88.93;101053.34;5051454;28;20048;-68
2023/12/29 00:11:27;;;;;;;26.13;4.00;;;;;;;11.38;89.48;101067.44;5031556;28;20527;-68
2023/12/29 00:13:54;;;;;;;20.65;3.50;;;;;;;11.11;90.35;101060.88;5050782;28;20056;-68
2023/12/29 00:16:22;;;;;;;20.13;3.90;;;;;;;11.37;90.43;101058.34;5049738;28;20063;-69
2023/12/29 00:18:50;;;;;;;14.60;2.88;;;;;;;11.57;89.90;101051.56;5051704;28;20049;-67
2023/12/29 00:21:18;;;;;;;25.88;4.03;;;;;;;11.64;89.00;101057.47;5001541;28;20060;-68
2023/12/29 00:23:48;;;;;;;19.88;3.30;;;;;;;11.52;88.10;101063.53;5051441;28;20421;-68
2023/12/29 00:26:18;;;;;;;24.25;3.90;;;;;;;11.39;88.15;101047.81;5053092;28;20063;-68
2023/12/29 00:28:54;;;;;;;18.42;2.70;;;;;;;11.51;88.74;101056.38;5018825;28;20524;-67
2023/12/29 00:31:21;;;;;;;19.98;3.10;;;;;;;11.52;88.08;101058.03;5029655;28;20647;-68
2023/12/29 00:33:51;;;;;;;16.15;2.65;;;;;;;11.62;88.11;101059.72;5051976;28;20064;-68
2023/12/29 00:36:20;;;;;;;17.88;3.20;;;;;;;11.46;88.72;101070.28;5033432;28;20052;-68
2023/12/29 00:38:47;;;;;;;17.45;2.70;;;;;;;11.58;89.02;101064.22;5051286;28;20641;-68
2023/12/29 00:41:14;;;;;;;31.83;3.55;;;;;;;11.60;88.59;101067.47;5033374;28;20049;-68
2023/12/29 00:43:42;;;;;;;14.88;3.00;;;;;;;11.66;88.01;101060.75;5034684;28;20172;-68
2023/12/29 00:46:09;;;;;;;20.63;2.95;;;;;;;11.69;87.80;101051.84;5046565;28;20053;-67
2023/12/29 00:48:37;;;;;;;14.45;2.55;;;;;;;11.66;88.17;101053.31;5052508;28;20055;-68
2023/12/29 00:51:04;;;;;;;16.05;2.58;;;;;;;11.86;87.63;101047.28;5050222;28;20061;-67
2023/12/29 00:53:33;;;;;;;17.42;3.15;;;;;;;12.02;86.51;101040.25;5051510;28;20511;-67
2023/12/29 00:56:00;;;;;;;17.25;3.72;;;;;;;11.82;86.34;101043.50;5020104;28;20052;-68
2023/12/29 00:58:27;;;;;;;13.85;2.25;;;;;;;11.74;86.90;101040.69;5049971;28;20064;-68
2023/12/29 01:00:55;;;;;;;13.40;2.60;;;;;;;11.73;86.71;101041.81;5049498;28;20605;-67
2023/12/29 01:03:22;;;;;;;16.50;2.90;;;;;;;11.68;87.51;101051.03;5050418;28;20041;-67
2023/12/29 01:05:53;;;;;;;18.40;3.20;;;;;;;11.80;87.15;101058.75;5052200;28;20049;-68
2023/12/29 01:09:01;;;;;;;13.15;3.33;;;;;;;11.57;87.52;101049.63;5004476;28;20057;-67
2023/12/29 01:11:32;;;;;;;21.30;3.63;;;;;;;11.63;87.15;101050.31;5048659;28;20053;-69
2023/12/29 01:14:19;;;;;;;20.80;3.58;;;;;;;11.75;87.19;101048.63;5007377;28;20396;-69
2023/12/29 01:17:04;;;;;;;21.42;3.03;;;;;;;11.60;87.50;101028.84;5038058;28;20049;-69
2023/12/29 01:20:19;;;;;;;20.77;3.17;;;;;;;11.79;87.01;101040.56;5023253;28;20056;-69
2023/12/29 01:23:32;;;;;;;23.40;3.78;;;;;;;11.79;86.92;101022.06;5047107;28;20036;-69
2023/12/29 01:27:00;;;;;;;17.50;2.55;;;;;;;11.91;86.73;101029.75;5030901;28;20053;-69
2023/12/29 01:29:52;;;;;;;15.07;2.47;;;;;;;11.91;86.57;101022.31;5029416;28;20057;-67
2023/12/29 01:32:20;;;;;;;19.40;3.08;;;;;;;11.78;86.10;101030.66;5056205;28;20056;-69
2023/12/29 01:35:10;;;;;;;15.77;2.45;;;;;;;11.79;86.77;101035.84;5030315;28;20049;-68
2023/12/29 01:38:00;;;;;;;11.43;2.72;;;;;;;11.79;86.65;101029.50;5022463;28;20061;-67
2023/12/29 01:40:28;;;;;;;23.48;2.72;;;;;;;11.77;86.92;101023.53;5037757;28;20409;-68
2023/12/29 01:42:56;;;;;;;27.95;4.15;;;;;;;11.80;87.27;101031.16;5054967;28;20516;-69
2023/12/29 01:45:25;;;;;;;20.92;3.17;;;;;;;12.09;86.68;101037.03;5055390;28;20056;-67
2023/12/29 01:47:53;;;;;;;21.50;3.30;;;;;;;11.84;86.28;101030.22;5046861;28;20053;-67
2023/12/29 01:50:22;;;;;;;18.05;2.97;;;;;;;11.69;87.23;101027.00;5055580;28;20049;-69
2023/12/29 01:52:53;;;;;;;17.50;2.92;;;;;;;11.81;87.26;101027.25;5038444;28;20057;-69
2023/12/29 01:55:38;;;;;;;17.92;2.95;;;;;;;11.95;87.12;101031.59;5033488;28;20054;-68
2023/12/29 01:58:05;;;;;;;15.85;2.65;;;;;;;11.89;86.83;101037.56;5025586;28;20520;-67
2023/12/29 02:01:00;;;;;;;;;;;;;;;;;;;;;
2023/12/29 02:04:08;;;;;;;24.98;3.55;;;;;;;11.70;87.96;101042.47;4993205;28;20477;-68
2023/12/29 02:06:45;;;;;;;17.90;3.20;;;;;;;11.75;88.02;101039.56;4993720;28;20126;-70
2023/12/29 02:09:52;;;;;;;16.63;2.80;;;;;;;11.97;87.54;101034.03;4987138;28;20481;-70
2023/12/29 02:12:50;;;;;;;16.00;2.70;;;;;;;12.05;86.11;101039.59;4974554;28;20057;-69
2023/12/29 02:15:41;;;;;;;21.02;3.25;;;;;;;11.74;87.25;101038.75;4961582;28;20065;-69
2023/12/29 02:18:30;;;;;;;13.85;2.95;;;;;;;11.89;87.05;101041.13;4956493;28;20437;-67
2023/12/29 02:20:57;;;;;;;15.38;2.55;;;;;;;12.16;86.30;101037.41;4956581;28;20059;-68
2023/12/29 02:23:25;;;;;;;23.58;3.47;;;;;;;12.25;85.10;101035.50;4970508;28;20546;-68
2023/12/29 02:25:58;;;;;;;21.38;2.90;;;;;;;12.17;85.75;101041.78;4954099;29;20160;-68
2023/12/29 02:28:26;;;;;;;17.30;2.63;;;;;;;12.05;85.66;101036.84;4974448;28;20061;-67
2023/12/29 02:31:13;;;;;;;20.95;2.95;;;;;;;11.93;86.92;101041.31;4970588;28;20593;-68
2023/12/29 02:33:43;;;;;;;16.08;2.47;;;;;;;11.85;87.33;101031.84;4958193;28;20047;-67
2023/12/29 02:36:13;;;;;;;15.93;3.72;;;;;;;11.92;86.77;101039.69;4973160;28;20095;-70
2023/12/29 02:39:02;;;;;;;25.55;3.70;;;;;;;11.95;87.13;101023.31;4958187;28;20069;-62
2023/12/29 02:41:58;;;;;;;23.60;3.55;;;;;;;12.29;85.83;101034.53;4983267;28;20053;-70
2023/12/29 02:44:30;;;;;;;21.42;2.97;;;;;;;12.20;85.57;101030.91;5050963;28;20049;-68
2023/12/29 02:46:59;;;;;;;17.63;2.45;;;;;;;12.12;85.97;101031.69;5055405;28;20060;-68
2023/12/29 02:49:30;;;;;;;20.52;3.35;;;;;;;12.16;85.85;101031.88;5054215;28;20049;-62
2023/12/29 02:51:59;;;;;;;20.83;2.55;;;;;;;11.98;86.08;101024.59;5008595;28;20053;-61
2023/12/29 02:54:48;;;;;;;19.83;3.15;;;;;;;11.93;86.68;101025.56;5054829;28;20049;-63
2023/12/29 02:57:23;;;;;;;20.58;3.17;;;;;;;12.17;86.24;101016.94;5019777;28;20053;-62
2023/12/29 02:59:51;;;;;;;20.00;3.17;;;;;;;12.02;86.22;101009.88;5054838;28;20053;-61
2023/12/29 03:02:18;;;;;;;20.70;2.95;;;;;;;12.04;86.89;100998.50;5036232;28;20045;-62
2023/12/29 03:04:46;;;;;;;21.67;2.70;;;;;;;12.15;86.21;100995.16;5035342;28;20041;-62
2023/12/29 03:07:13;;;;;;;20.10;2.90;;;;;;;12.10;86.54;100995.28;5054224;28;20056;-61
2023/12/29 03:09:40;;;;;;;18.25;2.97;;;;;;;12.07;86.47;100984.88;5053767;28;20057;-61
2023/12/29 03:12:08;;;;;;;19.63;3.13;;;;;;;12.18;86.53;100983.50;5015144;28;20045;-62
2023/12/29 03:14:35;;;;;;;15.48;2.38;;;;;;;12.09;86.53;100977.09;5035069;28;20055;-61
2023/12/29 03:17:02;;;;;;;20.73;3.03;;;;;;;12.04;87.19;100985.53;5055901;28;20471;-62
2023/12/29 03:19:30;;;;;;;22.38;4.53;;;;;;;11.84;88.06;100980.53;5002629;28;20090;-61
2023/12/29 03:21:57;;;;;;;21.13;2.88;;;;;;;11.88;88.24;100986.22;5053536;28;20048;-62
2023/12/29 03:24:24;;;;;;;17.75;2.78;;;;;;;11.85;88.13;100998.72;5051742;28;20053;-61
2023/12/29 03:26:51;;;;;;;15.23;2.90;;;;;;;11.94;88.02;100987.75;5052660;28;20052;-63
2023/12/29 03:29:20;;;;;;;18.90;3.03;;;;;;;11.92;87.96;100988.06;5053879;28;20056;-61
2023/12/29 03:31:47;;;;;;;17.17;2.50;;;;;;;11.84;88.65;100979.69;5046410;28;20057;-61
2023/12/29 03:34:14;;;;;;;23.30;3.67;;;;;;;11.93;87.95;100984.16;5033658;28;20041;-60
2023/12/29 03:36:42;;;;;;;25.80;3.53;;;;;;;11.96;88.06;100979.97;5032507;28;20072;-61
2023/12/29 03:39:10;;;;;;;21.40;2.75;;;;;;;11.84;88.39;100979.69;5038362;28;20048;-60
2023/12/29 03:41:38;;;;;;;24.85;3.35;;;;;;;12.16;87.82;100985.75;5052042;28;20052;-61
2023/12/29 03:44:06;;;;;;;18.45;2.60;;;;;;;12.07;86.89;100975.78;5031735;28;20053;-60
2023/12/29 03:46:33;;;;;;;20.67;2.95;;;;;;;11.97;87.99;100976.06;5051760;28;20555;-61
2023/12/29 03:49:01;;;;;;;23.50;3.05;;;;;;;11.95;88.22;100972.78;5051842;28;20052;-62
2023/12/29 03:51:29;;;;;;;20.15;2.83;;;;;;;12.14;87.12;100973.38;5053451;28;20057;-61
2023/12/29 03:53:58;;;;;;;26.20;3.28;;;;;;;12.02;87.56;100975.94;5053157;28;20563;-61
2023/12/29 03:56:25;;;;;;;24.43;3.30;;;;;;;12.14;87.14;100965.94;5052470;28;20049;-62
2023/12/29 03:58:52;;;;;;;25.80;3.55;;;;;;;12.19;86.52;100959.44;5034895;28;20053;-61
2023/12/29 04:01:20;;;;;;;20.48;3.20;;;;;;;12.22;86.31;100950.53;5053043;28;20523;-62
2023/12/29 04:03:47;;;;;;;17.38;2.92;;;;;;;12.02;86.57;100946.38;5034972;28;20045;-61
2023/12/29 04:06:15;;;;;;;20.98;2.30;;;;;;;11.83;87.16;100956.84;5049478;28;20052;-61
2023/12/29 04:08:42;;;;;;;24.70;3.45;;;;;;;11.94;87.13;100944.38;5034648;28;20048;-61
2023/12/29 04:11:10;;;;;;;19.70;3.22;;;;;;;11.94;86.55;100949.09;5034125;28;20148;-61
2023/12/29 04:13:37;;;;;;;20.10;2.72;;;;;;;11.96;86.35;100947.63;5033922;28;20124;-61
2023/12/29 04:16:05;;;;;;;22.25;2.78;;;;;;;12.15;85.41;100950.19;5034603;28;20051;-61
2023/12/29 04:18:33;;;;;;;17.58;2.35;;;;;;;12.13;85.04;100939.44;5034970;28;20049;-62
2023/12/29 04:21:01;;;;;;;17.63;2.40;;;;;;;12.08;85.70;100950.63;5032054;28;20080;-61
2023/12/29 04:23:28;;;;;;;19.70;2.47;;;;;;;11.98;85.61;100945.38;5037438;28;21225;-60
2023/12/29 04:25:55;;;;;;;13.23;2.70;;;;;;;11.94;85.80;100947.13;5051753;28;20053;-61
2023/12/29 04:28:23;;;;;;;15.05;2.38;;;;;;;11.95;85.59;100943.25;5051999;28;20053;-59
2023/12/29 04:30:50;;;;;;;14.35;2.45;;;;;;;12.11;85.68;100954.69;5034569;28;20064;-62
2023/12/29 04:33:18;;;;;;;22.80;3.47;;;;;;;12.08;85.14;100953.38;5031736;28;20053;-60
2023/12/29 04:35:45;;;;;;;14.27;2.75;;;;;;;12.06;85.52;100941.88;5023005;28;20041;-62
2023/12/29 04:38:12;;;;;;;12.05;2.08;;;;;;;12.10;85.46;100942.84;5052340;28;20045;-61
2023/12/29 04:40:40;;;;;;;18.77;2.80;;;;;;;11.93;86.75;100950.22;5001552;28;20083;-61
2023/12/29 04:43:07;;;;;;;16.80;2.72;;;;;;;11.99;86.46;100943.44;5034280;28;20053;-60
2023/12/29 04:45:35;;;;;;;26.80;3.33;;;;;;;12.04;85.96;100938.59;5052291;28;20059;-67
2023/12/29 04:48:02;;;;;;;22.13;2.67;;;;;;;12.07;86.24;100948.19;5034456;28;20064;-66
2023/12/29 04:50:30;;;;;;;14.85;2.15;;;;;;;12.16;85.84;100930.53;5033661;28;20061;-61
2023/12/29 04:52:58;;;;;;;17.13;3.05;;;;;;;12.28;85.46;100943.72;5051004;28;20064;-68
2023/12/29 04:55:25;;;;;;;20.27;3.00;;;;;;;12.19;84.95;100942.88;5017592;28;20048;-68
2023/12/29 04:57:52;;;;;;;13.45;2.20;;;;;;;12.08;85.61;100930.50;5051196;28;20422;-61
2023/12/29 05:00:20;;;;;;;21.10;2.35;;;;;;;12.05;85.55;100931.94;5048220;28;20071;-61
2023/12/29 05:02:47;;;;;;;18.40;2.42;;;;;;;12.06;86.19;100930.81;5032782;28;20554;-62
2023/12/29 05:05:14;;;;;;;17.63;3.08;;;;;;;11.97;86.34;100923.63;5050595;28;20045;-61
2023/12/29 05:07:42;;;;;;;14.27;2.50;;;;;;;11.99;85.92;100915.84;5033009;28;20064;-61
2023/12/29 05:10:09;;;;;;;17.13;2.90;;;;;;;11.98;86.34;100923.28;5034331;28;20057;-60
2023/12/29 05:12:37;;;;;;;15.55;2.60;;;;;;;12.13;86.52;100928.38;5012637;28;20405;-61
2023/12/29 05:15:05;;;;;;;19.10;2.40;;;;;;;12.07;86.55;100920.56;5031393;28;20041;-61
2023/12/29 05:17:32;;;;;;;17.85;2.03;;;;;;;12.09;86.69;100935.69;5030007;28;20060;-61
2023/12/29 05:20:00;;;;;;;17.17;2.75;;;;;;;12.19;86.48;100927.13;5050845;28;20065;-67
2023/12/29 05:22:27;;;;;;;15.63;2.40;;;;;;;12.51;84.52;100928.69;5034372;28;20045;-67
2023/12/29 05:24:59;;;;;;;14.50;2.35;;;;;;;12.30;84.52;100930.41;5033884;28;20077;-68
2023/12/29 05:27:27;;;;;;;19.25;2.90;;;;;;;12.57;84.31;100926.59;5035138;28;20072;-67
2023/12/29 05:29:54;;;;;;;16.48;2.58;;;;;;;12.27;84.66;100942.91;5052643;28;20053;-67
2023/12/29 05:32:21;;;;;;;21.80;3.05;;;;;;;12.36;84.66;100943.75;5052026;28;20423;-67
2023/12/29 05:34:49;;;;;;;24.73;3.75;;;;;;;12.18;85.39;100947.59;5017721;28;20053;-67
2023/12/29 05:37:17;;;;;;;14.57;2.35;;;;;;;12.11;85.62;100935.38;5052173;28;20045;-61
2023/12/29 05:39:45;;;;;;;16.35;2.60;;;;;;;12.07;85.66;100931.59;5051868;28;20049;-64
2023/12/29 05:42:12;;;;;;;19.27;3.08;;;;;;;12.34;85.30;100936.94;5051205;28;20060;-67
2023/12/29 05:44:39;;;;;;;13.88;2.15;;;;;;;12.16;85.46;100946.28;5051539;28;20037;-67
2023/12/29 05:47:07;;;;;;;22.88;3.15;;;;;;;11.97;86.12;100943.75;5051496;28;20049;-68
2023/12/29 05:49:39;;;;;;;21.80;2.63;;;;;;;11.97;86.47;100942.94;5051996;28;20053;-68
2023/12/29 05:52:07;;;;;;;16.73;3.00;;;;;;;11.99;87.14;100938.75;5023465;28;20052;-68
2023/12/29 05:54:34;;;;;;;23.60;3.00;;;;;;;12.00;86.77;100934.00;5051159;28;20088;-67
2023/12/29 05:57:02;;;;;;;20.65;2.70;;;;;;;12.04;87.10;100941.34;5032757;28;20060;-67
2023/12/29 05:59:30;;;;;;;23.35;2.58;;;;;;;12.04;86.55;100946.06;5051045;28;20579;-68
2023/12/29 06:01:57;;;;;;;21.98;2.63;;;;;;;12.12;86.81;100950.78;5032694;28;20408;-67
2023/12/29 06:04:25;;;;;;;17.40;2.35;;;;;;;11.99;86.84;100949.78;5051784;28;20494;-67
2023/12/29 06:06:52;;;;;;;23.42;3.55;;;;;;;11.92;86.67;100954.94;5033283;28;20155;-67
2023/12/29 06:09:19;;;;;;;13.85;2.47;;;;;;;11.90;87.03;100945.34;5036267;28;20053;-67
2023/12/29 06:11:47;;;;;;;19.33;2.67;;;;;;;11.81;87.20;100953.56;5020084;28;20064;-68
2023/12/29 06:14:14;;;;;;;16.77;2.58;;;;;;;11.86;87.25;100958.94;5019822;28;20143;-68
2023/12/29 06:16:42;;;;;;;16.45;2.92;;;;;;;11.97;87.39;100956.75;5055126;28;20056;-67
2023/12/29 06:19:09;;;;;;;18.95;2.90;;;;;;;11.99;87.09;100943.44;5053701;28;20045;-68
2023/12/29 06:21:47;;;;;;;19.30;2.60;;;;;;;12.05;86.69;100948.50;5036223;28;20060;-61
2023/12/29 06:24:15;;;;;;;22.30;3.03;;;;;;;11.95;86.96;100953.47;5053780;28;20476;-67
2023/12/29 06:26:44;;;;;;;18.08;2.53;;;;;;;11.95;87.77;100961.75;5053427;28;20048;-66
2023/12/29 06:29:11;;;;;;;19.23;2.72;;;;;;;12.05;87.61;100961.47;5054583;28;20065;-62
2023/12/29 06:31:42;;;;;;;20.77;2.63;;;;;;;12.15;86.79;100958.47;5030531;28;20049;-61
2023/12/29 06:34:10;;;;;;;20.08;2.30;;;;;;;12.27;85.52;100975.25;5024676;28;20057;-68
2023/12/29 06:36:38;;;;;;;19.90;3.03;;;;;;;12.13;85.58;100966.25;5043386;28;20041;-67
2023/12/29 06:39:05;;;;;;;19.17;2.40;;;;;;;11.96;86.00;100955.13;5034760;28;20052;-68
2023/12/29 06:41:33;;;;;;;16.83;3.22;;;;;;;11.82;86.73;100960.69;5053483;28;20593;-69
2023/12/29 06:44:00;;;;;;;15.73;2.75;;;;;;;12.03;86.22;100958.25;5052129;28;20665;-67
2023/12/29 06:46:27;;;;;;;12.77;2.65;;;;;;;12.01;85.48;100955.78;5054068;28;20045;-68
2023/12/29 06:48:55;;;;;;;15.85;2.22;;;;;;;11.86;86.37;100956.19;5052789;28;20411;-60
2023/12/29 06:51:23;;;;;;;12.50;2.65;;;;;;;11.93;86.07;100950.22;5036899;28;20045;-62
2023/12/29 06:53:50;;;;;;;17.27;2.60;;;;;;;11.80;86.75;100946.41;5036613;28;20460;-62
2023/12/29 06:56:18;;;;;;;15.68;3.10;;;;;;;11.86;86.82;100949.84;5036063;28;20446;-62
2023/12/29 06:58:46;;;;;;;12.52;2.08;;;;;;;11.98;85.87;100942.63;5054391;28;20049;-67
2023/12/29 07:01:13;;;;;;;14.88;2.20;;;;;;;11.95;85.17;100946.00;5054667;28;20071;-60
2023/12/29 07:03:41;;;;;;;13.85;2.38;;;;;;;11.93;85.85;100945.50;5036304;28;20064;-61
2023/12/29 07:06:10;;;;;;;15.35;2.50;;;;;;;11.96;86.15;100955.91;5019660;28;20049;-62
2023/12/29 07:08:38;;;;;;;23.08;3.42;;;;;;;12.15;85.91;100941.91;5035810;28;20071;-68
2023/12/29 07:11:09;;;;;;;15.93;2.45;;;;;;;12.08;85.46;100947.06;5036686;28;20050;-67
2023/12/29 07:13:36;;;;;;;19.38;2.65;;;;;;;12.09;85.98;100943.16;5036808;28;20052;-67
2023/12/29 07:16:04;;;;;;;19.67;2.60;;;;;;;12.06;85.62;100939.09;5019724;28;20055;-67
2023/12/29 07:18:34;;;;;;;15.98;2.47;;;;;;;12.11;85.96;100946.41;5017399;28;20056;-61
2023/12/29 07:21:02;;;;;;;19.83;2.95;;;;;;;12.13;85.95;100936.66;5034812;28;20052;-62
2023/12/29 07:23:29;;;;;;;21.02;2.90;;;;;;;11.92;86.26;100938.38;5036129;28;20053;-61
2023/12/29 07:25:56;;;;;;;13.60;2.60;;;;;;;11.82;87.20;100937.84;5053551;28;20041;-60
2023/12/29 07:28:24;;;;;;;13.77;2.30;;;;;;;11.97;87.00;100937.41;5053526;28;20064;-69
2023/12/29 07:30:51;;;;;;;20.40;2.72;;;;;;;11.90;86.61;100934.28;5018884;28;20068;-67
2023/12/29 07:33:18;;;;;;;13.00;2.47;;;;;;;11.73;87.61;100945.25;5016231;28;20058;-69
2023/12/29 07:35:46;;;;;;;18.75;2.72;;;;;;;11.83;87.57;100940.28;5037491;28;20045;-67
2023/12/29 07:38:13;;;;;;;19.17;2.95;;;;;;;11.73;88.19;100942.47;5016011;28;20049;-61
2023/12/29 07:40:40;;;;;;;15.73;2.65;;;;;;;11.78;88.25;100936.81;5050414;28;20436;-63
2023/12/29 07:43:08;;;;;;;13.15;2.45;;;;;;;11.75;88.36;100937.47;5035697;28;20388;-63
2023/12/29 07:45:35;;;;;;;16.52;2.08;;;;;;;12.35;86.74;100927.50;5035385;28;20060;-62
2023/12/29 07:48:03;;;;;;;14.80;2.50;;;;;;;11.83;87.40;100931.16;5052432;28;20052;-61
2023/12/29 07:50:33;;;;;;;13.88;1.70;;;;;;;11.90;87.48;100937.88;5051741;28;20075;-61
2023/12/29 07:53:02;;;;;;;18.02;2.70;;;;;;;11.85;87.53;100932.50;5053092;28;20059;-62
2023/12/29 07:55:30;;;;;;;16.27;2.63;;;;;;;11.68;88.22;100937.88;5052435;28;20053;-61
2023/12/29 07:57:58;;;;;;;16.27;2.10;;;;;;;11.56;89.32;100947.88;5018704;28;20053;-61
2023/12/29 08:00:26;;;;;;;17.45;3.88;;;;;;;11.67;89.26;100944.56;5048889;28;20071;-61
2023/12/29 08:02:54;;;;;;;19.38;2.30;;;;;;;11.47;89.67;100949.75;5050108;28;20080;-61
2023/12/29 08:05:21;;;;;;;14.95;2.42;;;;;;;11.50;89.95;100955.44;5033650;28;20056;-62
2023/12/29 08:07:48;;;;;;;10.95;2.35;;;;;;;11.77;89.11;100947.03;5048470;28;20057;-60
2023/12/29 08:10:16;;;;;;;16.52;3.08;;;;;;;11.74;88.80;100949.63;5034635;28;20056;-61
2023/12/29 08:12:43;;;;;;;13.82;3.95;;;;;;;11.80;88.97;100945.59;5052607;28;20052;-63
2023/12/29 08:15:11;;;;;;;14.88;2.60;;;;;;;11.62;88.99;100944.66;5052844;28;20077;-62
2023/12/29 08:17:38;;;;;;;15.82;2.97;;;;;;;11.68;88.19;100940.66;5050084;28;20056;-62
2023/12/29 08:20:06;;;;;;;16.63;2.20;;;;;;;11.59;88.93;100947.22;5051746;28;20057;-64
2023/12/29 08:22:34;;;;;;;19.65;3.20;;;;;;;12.02;88.14;100949.13;5033824;28;20065;-61
2023/12/29 08:25:01;;;;;;;14.27;2.55;;;;;;;12.02;87.23;100957.41;5052154;28;20049;-69
2023/12/29 08:27:28;;;;;;;20.00;2.60;;;;;;;11.80;88.21;100949.16;5034551;28;20045;-67
2023/12/29 08:29:56;;;;;;;13.93;2.38;;;;;;;11.75;88.56;100952.06;5035502;28;20439;-68
2023/12/29 08:32:23;;;;;;;12.75;2.30;;;;;;;11.65;89.22;100948.75;5047616;28;20053;-68
2023/12/29 08:34:52;;;;;;;14.02;2.75;;;;;;;11.79;88.56;100949.47;5034166;28;20053;-67
2023/12/29 08:37:19;;;;;;;13.80;2.40;;;;;;;11.77;89.22;100952.56;5052264;28;20045;-67
2023/12/29 08:39:48;;;;;;;11.98;1.75;;;;;;;12.00;88.74;100956.09;5051744;28;20056;-69
2023/12/29 08:42:16;;;;;;;13.95;2.75;;;;;;;11.99;88.07;100952.53;5050856;28;20084;-68
2023/12/29 08:44:43;;;;;;;10.40;1.63;;;;;;;12.14;87.60;100954.06;5044887;28;20049;-67
2023/12/29 08:47:11;;;;;;;15.23;2.42;;;;;;;11.92;88.29;100937.56;5032251;28;20050;-67
2023/12/29 08:49:38;;;;;;;12.07;2.38;;;;;;;11.80;88.90;100949.16;5032780;28;20052;-68
2023/12/29 08:52:06;;;;;;;13.55;2.15;;;;;;;11.91;88.84;100953.28;5051704;28;20061;-67
2023/12/29 08:54:33;;;;;;;14.38;2.22;;;;;;;12.06;88.15;100946.56;5052430;28;20064;-68
2023/12/29 08:57:01;;;;;;;14.07;2.97;;;;;;;12.20;87.52;100941.75;5052031;28;20088;-67
2023/12/29 08:59:28;;;;;;;11.98;2.20;;;;;;;12.06;87.71;100952.09;5050920;28;20052;-67
2023/12/29 09:01:56;;;;;;;11.00;1.90;;;;;;;12.15;87.33;100958.47;5050383;28;20063;-68
2023/12/29 09:04:23;;;;;;;17.60;2.42;;;;;;;12.22;86.47;100956.06;5051627;28;20049;-68
2023/12/29 09:06:51;;;;;;;16.08;2.40;;;;;;;12.16;86.68;100954.56;5017572;28;20049;-67
2023/12/29 09:09:18;;;;;;;14.13;2.42;;;;;;;12.34;86.39;100957.06;5034667;28;20048;-68
2023/12/29 09:11:49;;;;;;;12.23;1.90;;;;;;;12.51;85.00;100967.38;5049850;28;20048;-68
2023/12/29 09:14:17;;;;;;;15.23;2.30;;;;;;;12.37;85.41;100964.72;5051112;28;20060;-68
2023/12/29 09:16:55;;;;;;;16.73;2.22;;;;;;;12.10;86.29;100964.91;5034127;28;20041;-69
2023/12/29 09:20:02;;;;;;;20.00;2.83;;;;;;;12.12;87.09;100976.47;5052515;28;20048;-69
2023/12/29 09:23:40;;;;;;;15.40;3.33;;;;;;;12.37;85.88;100981.31;4987765;28;20533;-70
2023/12/29 09:27:01;;;;;;;20.77;3.67;;;;;;;12.65;84.35;100983.81;4952468;28;20510;-68
2023/12/29 09:30:25;;;;;;;12.60;2.28;;;;;;;12.53;84.07;100992.75;5005296;28;20382;-70
2023/12/29 09:33:43;;;;;;;15.25;2.80;;;;;;;12.47;84.33;100977.44;4965548;28;20050;-69
2023/12/29 09:37:16;;;;;;;13.18;2.15;;;;;;;12.22;85.04;100987.22;4997652;28;20449;-70
2023/12/29 09:40:49;;;;;;;13.13;2.72;;;;;;;12.29;84.72;100989.56;4996535;28;20069;-70
2023/12/29 09:47:48;;;;;;;14.57;2.65;;;;;;;12.59;83.18;100969.34;4950763;28;20050;-69
2023/12/29 09:50:40;;;;;;;14.98;2.40;;;;;;;12.67;82.91;100984.31;4946544;28;20055;-69
2023/12/29 09:53:43;;;;;;;14.60;3.60;;;;;;;12.61;83.25;100983.66;4940731;28;20055;-68
2023/12/29 09:56:45;;;;;;;21.40;2.80;;;;;;;13.25;81.12;100987.56;4931142;29;20507;-63
2023/12/29 09:59:52;;;;;;;;;;;;;;;13.43;79.75;100978.09;4960792;28;20062;-64
2023/12/29 10:02:37;;;;;;;20.27;3.28;;;;;;;13.49;78.77;100982.34;4979257;28;19946;-64
2023/12/29 10:05:05;;;;;;;8.23;1.50;;;;;;;13.90;77.72;100984.56;4992315;28;20053;-63
2023/12/29 10:07:39;;;;;;;13.10;2.42;;;;;;;14.15;75.33;100984.53;4998530;28;20046;-62
2023/12/29 10:10:25;;;;;;;13.73;2.55;;;;;;;14.39;74.06;100992.28;4993217;28;20048;-62
2023/12/29 10:12:58;;;;;;;13.35;2.60;;;;;;;14.28;73.77;100993.78;4996032;28;20043;-60
2023/12/29 10:16:14;;;;;;;17.42;4.80;;;;;;;13.85;75.80;100984.75;4984197;28;20681;-61
2023/12/29 10:18:52;;;;;;;17.23;2.58;;;;;;;13.54;78.16;100990.50;5013937;28;20061;-61
2023/12/29 10:21:29;;;;;;;20.27;2.40;;;;;;;13.48;77.97;100986.25;5035739;28;20062;-61
2023/12/29 10:24:09;;;;;;;18.83;2.88;;;;;;;13.64;78.59;100992.09;5037789;28;20064;-61
2023/12/29 10:26:36;;;;;;;19.40;2.50;;;;;;;13.58;78.18;100995.03;5053622;28;20066;-67
2023/12/29 10:29:04;;;;;;;17.08;2.92;;;;;;;13.50;78.50;101008.88;5052318;28;20448;-70
2023/12/29 10:31:31;;;;;;;16.05;2.13;;;;;;;13.68;78.12;101004.97;4999512;28;20146;-66
2023/12/29 10:34:18;;;;;;;16.65;2.50;;;;;;;13.52;78.59;100999.13;5047944;28;20072;-68
2023/12/29 10:36:49;;;;;;;18.73;4.20;;;;;;;13.39;78.99;101013.09;5054366;28;20083;-67
2023/12/29 10:39:17;;;;;;;15.65;2.92;;;;;;;13.32;79.39;100999.75;5036704;28;20045;-66
2023/12/29 10:41:44;;;;;;;19.25;3.03;;;;;;;13.55;79.15;100992.09;5054234;28;20056;-64
2023/12/29 10:44:12;;;;;;;22.63;3.60;;;;;;;13.71;78.23;101001.53;5054239;28;20061;-67
2023/12/29 10:46:40;;;;;;;13.15;2.83;;;;;;;13.58;78.00;100999.78;5053327;28;20052;-66
2023/12/29 10:49:11;;;;;;;15.57;2.70;;;;;;;13.52;78.60;101001.88;5031457;28;20704;-63
2023/12/29 10:51:40;;;;;;;13.65;2.13;;;;;;;13.76;78.08;100984.75;5049240;28;20045;-61
2023/12/29 10:54:07;;;;;;;11.68;2.03;;;;;;;13.82;77.21;100982.63;5053067;28;20492;-60
2023/12/29 10:56:35;;;;;;;18.20;3.78;;;;;;;13.69;78.05;100983.63;5050174;28;20061;-62
2023/12/29 10:59:04;;;;;;;11.57;3.08;;;;;;;13.73;78.67;100968.81;5064481;28;20051;-63
2023/12/29 11:01:35;;;;;;;12.23;2.63;;;;;;;13.54;79.27;100974.72;5050349;28;20536;-61
2023/12/29 11:04:06;;;;;;;20.67;3.25;;;;;;;13.54;78.51;100971.94;5057239;28;20448;-62
2023/12/29 11:06:46;;;;;;;14.02;2.88;;;;;;;13.60;78.76;100963.47;5049532;28;20530;-63
2023/12/29 11:09:14;;;;;;;13.55;2.25;;;;;;;13.81;77.83;100961.63;5053492;28;20045;-63
2023/12/29 11:11:42;;;;;;;19.05;2.95;;;;;;;13.88;76.67;100962.75;5059475;28;20384;-62
2023/12/29 11:14:10;;;;;;;14.75;2.85;;;;;;;13.75;77.77;100958.22;5021473;28;20053;-62
2023/12/29 11:16:38;;;;;;;18.92;2.90;;;;;;;13.86;76.97;100953.16;5058069;28;20510;-62
2023/12/29 11:19:07;;;;;;;16.17;2.85;;;;;;;14.03;76.76;100953.94;5052921;28;20060;-63
2023/12/29 11:21:34;;;;;;;16.27;2.72;;;;;;;14.00;75.82;100954.56;5023767;28;20630;-62
2023/12/29 11:24:02;;;;;;;18.63;3.95;;;;;;;13.97;75.70;100959.94;5052322;28;20045;-62
2023/12/29 11:26:29;;;;;;;15.88;3.72;;;;;;;13.97;76.36;100955.22;5057390;28;20060;-62
2023/12/29 11:28:57;;;;;;;16.13;3.60;;;;;;;14.13;75.93;100953.56;5053786;28;20049;-62
2023/12/29 11:31:25;;;;;;;18.80;4.28;;;;;;;14.16;75.23;100949.28;5058282;28;20448;-63
2023/12/29 11:33:58;;;;;;;16.77;4.50;;;;;;;14.13;75.36;100953.56;5028095;28;20128;-62
2023/12/29 11:36:31;;;;;;;17.15;6.18;;;;;;;14.18;75.39;100949.78;5032422;28;20045;-62
2023/12/29 11:39:37;;;;;;;23.23;10.40;;;;;;;13.96;75.39;100950.03;5041781;28;20886;-63
2023/12/29 11:42:30;;;;;;;26.35;10.68;;;;;;;13.73;76.35;100949.44;5031486;28;20540;-63
2023/12/29 11:44:58;;;;;;;19.67;7.30;;;;;;;13.55;77.51;100947.81;5044909;28;20045;-63
2023/12/29 11:47:38;;;;;;;23.42;5.10;;;;;;;13.85;76.21;100944.03;5042899;28;20090;-63
2023/12/29 11:50:06;;;;;;;13.20;3.30;;;;;;;13.69;76.46;100950.41;5041322;28;20488;-56